Time;durP1;ratioP1;P1;durP2;ratioP2;P2;SDS_P1;SDS_P2;PMS_P1;PMS_P2;Temp;Humidity;BMP_temperature;BMP_pressure;BME280_temperature;BME280_humidity;BME280_pressure;Samples;Min_cycle;Max_cycle;Signal;HPM_P1;HPM_P2
2022/03/01 00:02:24;;;;;;;11.63;10.43;;;4.90;54.50;;;;;;5024373;28;20764;-90
2022/03/01 00:04:50;;;;;;;12.07;10.73;;;4.80;54.40;;;;;;5019600;28;20206;-89
2022/03/01 00:07:16;;;;;;;14.10;11.00;;;4.80;55.20;;;;;;5033713;28;20273;-89
2022/03/01 00:09:41;;;;;;;12.00;10.63;;;4.80;55.90;;;;;;5007131;28;20221;-89
2022/03/01 00:12:08;;;;;;;14.10;10.93;;;4.80;54.20;;;;;;5011540;28;20203;-90
2022/03/01 00:14:33;;;;;;;12.30;10.77;;;4.80;54.40;;;;;;5031515;28;20248;-89
2022/03/01 00:16:59;;;;;;;12.40;11.10;;;4.90;55.40;;;;;;5010955;28;20202;-88
2022/03/01 00:19:29;;;;;;;12.73;11.43;;;4.70;54.70;;;;;;5022695;28;20189;-89
2022/03/01 00:21:58;;;;;;;15.57;12.40;;;4.50;56.50;;;;;;5013225;28;20193;-90
2022/03/01 00:24:24;;;;;;;13.73;11.17;;;4.40;56.20;;;;;;5033150;28;20193;-89
2022/03/01 00:26:50;;;;;;;18.30;11.13;;;4.30;57.60;;;;;;5039956;28;20208;-88
2022/03/01 00:29:16;;;;;;;12.23;10.93;;;4.10;57.10;;;;;;5020197;28;20685;-90
2022/03/01 00:31:42;;;;;;;11.97;10.77;;;4.00;58.50;;;;;;5011808;28;20197;-89
2022/03/01 00:34:08;;;;;;;12.70;10.53;;;4.00;58.40;;;;;;5006935;28;20185;-89
2022/03/01 00:36:36;;;;;;;15.33;11.60;;;4.00;58.00;;;;;;5027916;28;20415;-89
2022/03/01 00:39:06;;;;;;;14.20;11.80;;;4.00;57.10;;;;;;4995020;28;20542;-89
2022/03/01 00:41:31;;;;;;;12.60;11.03;;;4.00;57.60;;;;;;5023314;28;20201;-88
2022/03/01 00:43:57;;;;;;;13.40;11.30;;;3.90;57.80;;;;;;5023069;28;20543;-89
2022/03/01 00:46:26;;;;;;;12.40;10.23;;;3.90;58.10;;;;;;5003976;28;20270;-88
2022/03/01 00:48:55;;;;;;;12.00;10.80;;;3.80;59.60;;;;;;5008100;28;20202;-89
2022/03/01 00:51:21;;;;;;;13.13;10.73;;;3.90;59.50;;;;;;5023266;28;20648;-88
2022/03/01 00:53:46;;;;;;;11.67;10.23;;;4.00;58.20;;;;;;5020377;28;20301;-88
2022/03/01 01:09:59;;;;;;;13.43;10.53;;;4.00;57.70;;;;;;5010959;28;20237;-89
2022/03/01 01:12:25;;;;;;;12.87;10.47;;;4.10;56.60;;;;;;5031433;28;20189;-89
2022/03/01 01:14:51;;;;;;;12.37;11.00;;;4.10;57.00;;;;;;5026073;28;20229;-90
2022/03/01 01:17:16;;;;;;;11.20;10.10;;;4.20;54.60;;;;;;5022567;28;20221;-89
2022/03/01 01:19:43;;;;;;;10.83;9.73;;;4.20;55.10;;;;;;5018180;28;20660;-90
2022/03/01 01:24:52;;;;;;;12.20;10.43;;;4.40;56.70;;;;;;5022732;28;20262;-89
2022/03/01 01:27:19;;;;;;;12.17;10.70;;;4.40;54.80;;;;;;5019240;28;20197;-91
2022/03/01 01:29:44;;;;;;;12.37;10.67;;;4.50;57.00;;;;;;5029622;28;20201;-91
2022/03/01 01:32:10;;;;;;;11.20;10.00;;;4.40;55.10;;;;;;5028349;28;20192;-89
2022/03/01 01:34:36;;;;;;;11.50;10.30;;;4.40;54.20;;;;;;5026427;28;20233;-89
2022/03/01 01:37:02;;;;;;;11.60;10.33;;;4.30;52.80;;;;;;5029047;28;20201;-88
2022/03/01 01:39:27;;;;;;;11.30;10.13;;;4.40;55.00;;;;;;5022446;28;20201;-89
2022/03/01 01:41:53;;;;;;;11.67;9.73;;;4.30;53.90;;;;;;5018748;28;20676;-91
2022/03/01 01:44:19;;;;;;;11.93;10.30;;;4.40;54.50;;;;;;5018976;28;20213;-89
2022/03/01 01:46:44;;;;;;;12.37;10.23;;;4.30;54.60;;;;;;5030049;28;20188;-89
2022/03/01 01:49:10;;;;;;;12.43;10.00;;;4.20;54.60;;;;;;5022333;28;20224;-89
2022/03/01 01:51:36;;;;;;;14.10;9.07;;;4.10;53.30;;;;;;5027124;28;20429;-89
2022/03/01 01:54:48;;;;;;;11.17;9.80;;;4.00;53.30;;;;;;5019263;28;20189;-90
2022/03/01 01:57:20;;;;;;;14.27;10.73;;;3.90;55.90;;;;;;5019931;28;20185;-89
2022/03/01 01:59:47;;;;;;;13.10;10.70;;;3.80;55.60;;;;;;5016502;28;20182;-89
2022/03/01 02:02:14;;;;;;;10.40;9.30;;;3.70;56.50;;;;;;5004262;28;20607;-89
2022/03/01 02:04:40;;;;;;;11.50;9.90;;;3.70;56.30;;;;;;5019667;28;20213;-88
2022/03/01 02:07:07;;;;;;;10.17;9.00;;;3.70;56.30;;;;;;5016897;28;20232;-89
2022/03/01 02:09:34;;;;;;;11.83;10.53;;;3.80;55.70;;;;;;5021158;28;20240;-89
2022/03/01 02:12:00;;;;;;;14.47;9.97;;;3.70;55.00;;;;;;4997945;28;20187;-88
2022/03/01 02:14:26;;;;;;;11.23;9.17;;;3.60;56.40;;;;;;5023394;28;20262;-90
2022/03/01 02:16:52;;;;;;;10.53;8.53;;;3.60;55.70;;;;;;5012105;28;20202;-91
2022/03/01 02:19:18;;;;;;;10.77;9.63;;;3.60;55.90;;;;;;5008658;28;20194;-90
2022/03/01 02:21:54;;;;;;;9.57;8.57;;;3.60;55.20;;;;;;5027580;28;20191;-89
2022/03/01 02:24:21;;;;;;;11.83;10.17;;;3.60;55.20;;;;;;5021372;28;20251;-89
2022/03/01 02:26:47;;;;;;;10.83;8.60;;;3.40;54.10;;;;;;5021623;28;20193;-89
2022/03/01 02:29:12;;;;;;;11.97;9.93;;;3.30;54.50;;;;;;5027121;28;20236;-89
2022/03/01 02:31:38;;;;;;;12.27;9.33;;;3.20;54.80;;;;;;5018218;28;20324;-90
2022/03/01 02:34:04;;;;;;;12.10;8.97;;;3.10;55.80;;;;;;5017441;28;20203;-89
2022/03/01 02:36:30;;;;;;;10.77;9.20;;;3.20;55.50;;;;;;5020719;28;20531;-90
2022/03/01 02:38:56;;;;;;;13.17;9.37;;;3.10;54.70;;;;;;5018256;28;20217;-90
2022/03/01 02:41:24;;;;;;;12.83;9.43;;;3.10;54.60;;;;;;5022281;28;20200;-89
2022/03/01 02:43:50;;;;;;;11.60;9.13;;;3.00;55.00;;;;;;5021231;28;20185;-88
2022/03/01 02:46:16;;;;;;;11.87;9.57;;;2.90;55.20;;;;;;5018448;28;20209;-89
2022/03/01 02:48:42;;;;;;;10.20;9.03;;;3.00;56.10;;;;;;5017674;28;20225;-89
2022/03/01 02:51:07;;;;;;;11.77;9.40;;;3.00;55.40;;;;;;5017690;28;20204;-89
2022/03/01 02:53:34;;;;;;;10.27;9.23;;;3.00;54.60;;;;;;5024739;28;20185;-89
2022/03/01 02:56:00;;;;;;;11.27;8.60;;;3.00;54.90;;;;;;5004902;28;20221;-89
2022/03/01 02:58:25;;;;;;;14.73;9.13;;;3.00;56.00;;;;;;4996736;28;20196;-88
2022/03/01 03:00:51;;;;;;;11.17;8.80;;;3.00;54.90;;;;;;5009776;28;20289;-89
2022/03/01 03:03:17;;;;;;;11.80;9.50;;;3.00;55.70;;;;;;5033862;28;20192;-89
2022/03/01 03:05:43;;;;;;;10.17;8.70;;;3.00;55.20;;;;;;5020044;28;20205;-88
2022/03/01 03:08:09;;;;;;;9.33;8.20;;;3.10;56.10;;;;;;5003090;28;20595;-88
2022/03/01 03:10:34;;;;;;;11.47;9.07;;;3.00;55.90;;;;;;5019821;28;20191;-88
2022/03/01 03:13:01;;;;;;;11.53;9.43;;;2.80;57.20;;;;;;5029791;28;20208;-88
2022/03/01 03:15:27;;;;;;;10.53;8.80;;;2.60;57.40;;;;;;5026551;28;20304;-89
2022/03/01 03:17:53;;;;;;;10.87;8.43;;;2.60;59.70;;;;;;5032310;28;20211;-92
2022/03/01 03:20:20;;;;;;;12.53;8.80;;;2.70;58.10;;;;;;5012213;28;20691;-89
2022/03/01 03:22:46;;;;;;;11.07;8.40;;;2.80;60.00;;;;;;5020686;28;20188;-89
2022/03/01 03:25:12;;;;;;;11.60;8.17;;;3.00;58.40;;;;;;5020023;28;20214;-90
2022/03/01 03:27:38;;;;;;;10.87;8.30;;;3.00;57.50;;;;;;5019485;28;20223;-89
2022/03/01 03:30:06;;;;;;;10.87;8.13;;;3.20;59.90;;;;;;5019094;28;20216;-89
2022/03/01 03:32:32;;;;;;;9.90;8.00;;;3.20;57.50;;;;;;5022292;28;20216;-91
2022/03/01 03:34:58;;;;;;;11.90;9.00;;;3.30;58.40;;;;;;5035196;28;20216;-91
2022/03/01 03:37:24;;;;;;;10.63;7.80;;;3.30;54.30;;;;;;5016463;28;20266;-89
2022/03/01 03:39:50;;;;;;;12.10;8.90;;;3.10;55.20;;;;;;5016761;28;20209;-89
2022/03/01 03:42:15;;;;;;;11.10;8.57;;;3.10;55.40;;;;;;5018052;28;20192;-88
2022/03/01 03:44:41;;;;;;;12.30;9.93;;;3.10;57.90;;;;;;5030186;28;20253;-89
2022/03/01 03:47:07;;;;;;;12.27;9.07;;;3.10;56.80;;;;;;5006457;28;20201;-89
2022/03/01 03:49:33;;;;;;;9.70;8.33;;;3.00;57.00;;;;;;5012590;28;20214;-89
2022/03/01 03:52:01;;;;;;;13.10;8.70;;;2.80;56.50;;;;;;5022090;28;20646;-88
2022/03/01 03:54:27;;;;;;;9.93;8.70;;;2.60;57.70;;;;;;5015155;28;20190;-89
2022/03/01 03:56:52;;;;;;;10.97;8.00;;;2.50;59.40;;;;;;5011120;28;20545;-89
2022/03/01 03:59:18;;;;;;;10.67;8.83;;;2.50;59.20;;;;;;5011005;28;20665;-89
2022/03/01 04:01:44;;;;;;;13.07;9.17;;;2.40;60.20;;;;;;5005302;28;20213;-88
2022/03/01 04:04:10;;;;;;;12.47;8.90;;;2.40;58.60;;;;;;5005876;28;20209;-88
2022/03/01 04:06:36;;;;;;;10.33;8.80;;;2.30;58.60;;;;;;5024986;28;20205;-89
2022/03/01 04:09:03;;;;;;;11.13;8.27;;;2.10;59.90;;;;;;5024669;28;20715;-89
2022/03/01 04:11:29;;;;;;;12.07;8.43;;;2.10;61.00;;;;;;5020884;28;20185;-90
2022/03/01 04:13:55;;;;;;;10.67;8.70;;;2.20;60.90;;;;;;5026513;28;20466;-89
2022/03/01 04:16:21;;;;;;;11.03;8.17;;;2.20;59.50;;;;;;5029417;28;20227;-88
2022/03/01 04:18:46;;;;;;;14.87;9.73;;;2.30;59.20;;;;;;5023913;28;20221;-87
2022/03/01 04:21:13;;;;;;;12.17;9.53;;;2.40;58.60;;;;;;5021931;28;20319;-89
2022/03/01 04:23:39;;;;;;;13.70;9.33;;;2.30;58.30;;;;;;5028749;28;20193;-89
2022/03/01 04:26:04;;;;;;;10.70;8.50;;;2.10;60.00;;;;;;5017067;28;20226;-90
2022/03/01 04:28:30;;;;;;;10.23;8.13;;;1.90;61.10;;;;;;5027226;28;20296;-89
2022/03/01 04:30:56;;;;;;;12.23;8.60;;;1.80;61.30;;;;;;5022008;28;20182;-91
2022/03/01 04:33:22;;;;;;;11.37;8.20;;;1.50;63.30;;;;;;5026707;28;20201;-90
2022/03/01 04:35:48;;;;;;;9.90;8.33;;;1.40;63.80;;;;;;5024616;28;20208;-90
2022/03/01 04:38:14;;;;;;;16.03;9.13;;;1.40;63.60;;;;;;5032693;28;20216;-90
2022/03/01 04:40:40;;;;;;;12.03;8.70;;;1.50;62.40;;;;;;5024189;28;20611;-89
2022/03/01 04:43:05;;;;;;;12.80;9.73;;;1.50;61.90;;;;;;4992705;28;20194;-89
2022/03/01 04:45:32;;;;;;;14.53;10.10;;;1.70;60.90;;;;;;5015400;28;20210;-89
2022/03/01 04:47:59;;;;;;;12.00;9.47;;;1.70;60.40;;;;;;5011995;28;20573;-91
2022/03/01 04:50:25;;;;;;;13.10;9.63;;;1.80;60.90;;;;;;5027890;28;20551;-89
2022/03/01 04:52:51;;;;;;;13.03;9.43;;;1.80;60.70;;;;;;5028568;28;20205;-88
2022/03/01 04:55:17;;;;;;;11.47;9.13;;;1.90;60.60;;;;;;5033513;28;20839;-88
2022/03/01 04:57:44;;;;;;;12.00;8.73;;;1.90;62.30;;;;;;5031693;28;20188;-88
2022/03/01 05:00:19;;;;;;;10.80;8.03;;;2.10;62.40;;;;;;4993716;28;20263;-89
2022/03/01 05:02:47;;;;;;;11.20;8.50;;;2.10;60.80;;;;;;5006727;28;20193;-90
2022/03/01 05:05:17;;;;;;;13.43;9.17;;;2.10;59.20;;;;;;5023738;28;20209;-88
2022/03/01 05:07:46;;;;;;;15.43;10.10;;;2.20;60.50;;;;;;5008212;28;20243;-89
2022/03/01 05:10:17;;;;;;;12.03;9.33;;;2.10;58.00;;;;;;5007617;28;20230;-89
2022/03/01 05:12:49;;;;;;;11.23;8.73;;;2.10;58.40;;;;;;5022242;28;20185;-88
2022/03/01 05:15:16;;;;;;;12.03;9.50;;;2.10;58.40;;;;;;5027161;28;20235;-89
2022/03/01 05:17:42;;;;;;;11.77;9.13;;;2.00;58.60;;;;;;4994501;28;20369;-90
2022/03/01 05:20:09;;;;;;;11.47;9.23;;;1.80;58.50;;;;;;5013171;28;20189;-91
2022/03/01 05:22:35;;;;;;;10.43;8.37;;;1.80;62.40;;;;;;5044473;28;20177;-89
2022/03/01 05:25:01;;;;;;;10.83;9.00;;;2.00;61.40;;;;;;5024969;28;20288;-89
2022/03/01 05:27:28;;;;;;;13.93;10.30;;;2.10;61.60;;;;;;5005047;28;20202;-90
2022/03/01 05:29:54;;;;;;;11.80;8.87;;;2.10;59.70;;;;;;5023262;28;20185;-90
2022/03/01 05:32:20;;;;;;;10.77;8.83;;;2.10;58.90;;;;;;5003301;28;20251;-90
2022/03/01 05:34:46;;;;;;;9.87;8.87;;;2.00;59.10;;;;;;5027207;28;20416;-88
2022/03/01 05:37:12;;;;;;;14.10;9.17;;;2.00;61.10;;;;;;5035894;28;20197;-89
2022/03/01 05:39:38;;;;;;;14.03;10.43;;;2.10;61.80;;;;;;5024576;28;20197;-90
2022/03/01 05:42:04;;;;;;;13.10;9.93;;;2.10;58.70;;;;;;5025538;28;20212;-89
2022/03/01 05:44:29;;;;;;;13.33;9.63;;;2.10;58.70;;;;;;5008048;28;20194;-89
2022/03/01 05:46:56;;;;;;;14.30;9.90;;;2.10;59.00;;;;;;5026599;28;20293;-89
2022/03/01 05:49:22;;;;;;;10.93;9.57;;;2.00;58.80;;;;;;4988615;28;20250;-89
2022/03/01 05:51:48;;;;;;;12.87;9.43;;;1.90;60.60;;;;;;5014841;28;20257;-89
2022/03/01 05:54:14;;;;;;;13.60;10.10;;;1.90;59.60;;;;;;5008155;28;20280;-88
2022/03/01 05:56:39;;;;;;;10.77;9.60;;;1.70;60.50;;;;;;5022829;28;20233;-89
2022/03/01 05:59:05;;;;;;;13.47;9.80;;;1.70;60.50;;;;;;5024682;28;20214;-90
2022/03/01 06:01:31;;;;;;;12.20;9.27;;;1.70;61.10;;;;;;5026366;28;20193;-89
2022/03/01 06:03:57;;;;;;;13.27;9.23;;;1.80;61.80;;;;;;5026850;28;20656;-89
2022/03/01 06:06:22;;;;;;;14.27;9.60;;;1.80;61.40;;;;;;5027337;28;20200;-89
2022/03/01 06:08:48;;;;;;;15.67;10.07;;;1.80;60.20;;;;;;5010394;28;20216;-91
2022/03/01 06:11:14;;;;;;;11.60;8.80;;;1.70;60.20;;;;;;5010215;28;20184;-89
2022/03/01 06:13:40;;;;;;;12.97;9.90;;;1.70;62.30;;;;;;5043313;28;20181;-88
2022/03/01 06:16:06;;;;;;;13.43;9.33;;;1.60;61.30;;;;;;5026321;28;20258;-88
2022/03/01 06:18:31;;;;;;;16.33;11.60;;;1.50;61.20;;;;;;5026523;28;20188;-89
2022/03/01 06:20:59;;;;;;;12.93;10.73;;;1.30;61.50;;;;;;5035859;28;20518;-88
2022/03/01 06:23:25;;;;;;;11.27;9.20;;;1.10;62.40;;;;;;5029902;28;20196;-88
2022/03/01 06:25:51;;;;;;;11.93;9.83;;;1.10;63.40;;;;;;5023621;28;20225;-88
2022/03/01 06:28:17;;;;;;;12.23;9.80;;;1.00;63.30;;;;;;5007646;28;20214;-88
2022/03/01 06:30:43;;;;;;;11.77;9.63;;;1.10;63.30;;;;;;5010928;28;20194;-88
2022/03/01 06:33:08;;;;;;;12.00;9.93;;;1.20;62.90;;;;;;5027291;28;20185;-88
2022/03/01 06:35:34;;;;;;;14.17;10.00;;;1.30;63.40;;;;;;5033331;28;20228;-88
2022/03/01 06:38:00;;;;;;;12.90;9.47;;;1.30;62.90;;;;;;5012057;28;20278;-88
2022/03/01 06:40:28;;;;;;;13.70;10.33;;;1.20;62.30;;;;;;5007022;28;20228;-88
2022/03/01 06:42:55;;;;;;;14.00;9.60;;;1.20;63.20;;;;;;5017719;28;20237;-87
2022/03/01 06:45:21;;;;;;;11.80;9.47;;;1.20;62.30;;;;;;5021145;28;20233;-88
2022/03/01 06:47:47;;;;;;;14.63;10.20;;;1.20;62.50;;;;;;5021775;28;20213;-88
2022/03/01 06:50:13;;;;;;;17.43;10.73;;;1.30;63.50;;;;;;5022999;28;20177;-88
2022/03/01 06:52:39;;;;;;;13.70;9.43;;;1.40;63.50;;;;;;4999451;28;20197;-88
2022/03/01 06:55:06;;;;;;;12.40;9.80;;;1.60;63.90;;;;;;5011531;28;20333;-89
2022/03/01 06:57:33;;;;;;;14.37;10.13;;;1.60;60.10;;;;;;5031613;28;20189;-89
2022/03/01 06:59:59;;;;;;;13.33;10.20;;;1.60;59.80;;;;;;5021652;28;20185;-88
2022/03/01 07:02:26;;;;;;;12.40;10.40;;;1.60;60.60;;;;;;5005498;28;20308;-88
2022/03/01 07:04:56;;;;;;;13.80;10.50;;;1.50;60.30;;;;;;5010449;28;20221;-89
2022/03/01 07:07:22;;;;;;;20.77;13.27;;;1.40;60.50;;;;;;5026839;28;20212;-89
2022/03/01 07:09:49;;;;;;;15.97;11.43;;;1.50;61.20;;;;;;5014069;28;20206;-89
2022/03/01 07:12:15;;;;;;;12.57;9.60;;;1.60;61.70;;;;;;4997420;28;20216;-89
2022/03/01 07:14:41;;;;;;;13.07;10.43;;;1.60;60.50;;;;;;5039644;28;20213;-89
2022/03/01 07:17:07;;;;;;;12.60;10.23;;;1.50;60.50;;;;;;5010018;28;20201;-89
2022/03/01 07:19:33;;;;;;;15.30;11.07;;;1.50;61.30;;;;;;5022801;28;20189;-89
2022/03/01 07:21:59;;;;;;;12.80;10.80;;;1.50;62.30;;;;;;5025340;28;20189;-89
2022/03/01 07:24:25;;;;;;;13.57;10.30;;;1.60;61.20;;;;;;5012751;28;20213;-89
2022/03/01 07:26:50;;;;;;;12.33;9.87;;;1.60;61.40;;;;;;5022046;28;20199;-88
2022/03/01 07:29:16;;;;;;;13.30;10.40;;;1.80;60.90;;;;;;5005609;28;20252;-90
2022/03/01 07:31:42;;;;;;;12.57;10.17;;;1.80;59.80;;;;;;5016066;28;20208;-88
2022/03/01 07:34:08;;;;;;;12.67;10.20;;;1.70;61.30;;;;;;5022851;28;20200;-89
2022/03/01 07:36:34;;;;;;;13.07;9.50;;;1.80;60.20;;;;;;5014734;28;20301;-89
2022/03/01 07:39:00;;;;;;;14.07;10.90;;;1.80;60.20;;;;;;5035252;28;20197;-87
2022/03/01 07:41:25;;;;;;;16.13;11.20;;;1.70;59.70;;;;;;5031271;28;20217;-89
2022/03/01 07:43:51;;;;;;;12.77;10.40;;;1.80;59.30;;;;;;5029877;28;20193;-89
2022/03/01 07:46:17;;;;;;;13.93;10.10;;;1.80;59.30;;;;;;5027666;28;20221;-90
2022/03/01 07:48:43;;;;;;;14.97;10.77;;;1.80;59.70;;;;;;5036704;28;20305;-88
2022/03/01 07:51:09;;;;;;;13.50;9.03;;;1.90;59.00;;;;;;4989857;28;20256;-89
2022/03/01 07:53:35;;;;;;;13.93;10.30;;;2.00;58.70;;;;;;5025161;28;20189;-89
2022/03/01 07:56:01;;;;;;;15.27;10.03;;;2.00;58.30;;;;;;5030227;28;20267;-88
2022/03/01 07:58:27;;;;;;;13.43;9.67;;;2.10;58.60;;;;;;5032374;28;20679;-89
2022/03/01 08:00:53;;;;;;;14.53;10.60;;;2.20;57.70;;;;;;5026978;28;20190;-89
2022/03/01 08:03:19;;;;;;;14.57;10.30;;;2.20;57.90;;;;;;5017465;28;20193;-88
2022/03/01 08:05:45;;;;;;;14.37;10.13;;;2.20;58.00;;;;;;5020540;28;20219;-89
2022/03/01 08:08:13;;;;;;;14.37;10.87;;;2.30;57.80;;;;;;5029006;28;20240;-89
2022/03/01 08:10:39;;;;;;;15.07;9.97;;;2.40;56.80;;;;;;5030980;28;20189;-88
2022/03/01 08:13:05;;;;;;;12.60;10.70;;;2.30;56.90;;;;;;5032734;28;20652;-88
2022/03/01 08:15:31;;;;;;;14.63;10.90;;;2.30;56.80;;;;;;5018684;28;20436;-89
2022/03/01 08:17:58;;;;;;;15.57;11.17;;;2.40;57.20;;;;;;5037773;28;20202;-89
2022/03/01 08:20:26;;;;;;;15.60;10.77;;;2.40;56.60;;;;;;5035330;28;20603;-87
2022/03/01 08:22:52;;;;;;;13.10;10.60;;;2.50;56.80;;;;;;5010845;28;20564;-89
2022/03/01 08:25:19;;;;;;;16.17;10.97;;;2.50;56.60;;;;;;5021196;28;20209;-90
2022/03/01 08:27:46;;;;;;;14.30;11.90;;;2.60;56.90;;;;;;5028512;28;20202;-90
2022/03/01 08:30:12;;;;;;;14.60;11.27;;;2.70;56.50;;;;;;5028680;28;20203;-89
2022/03/01 08:32:38;;;;;;;14.17;10.70;;;2.80;56.20;;;;;;5028843;28;20181;-89
2022/03/01 08:35:05;;;;;;;16.23;10.10;;;2.90;55.50;;;;;;5006248;28;20219;-90
2022/03/01 08:37:31;;;;;;;13.03;9.93;;;3.00;55.90;;;;;;5034129;28;20607;-89
2022/03/01 08:39:56;;;;;;;12.93;10.13;;;3.20;54.10;;;;;;5007536;28;20224;-88
2022/03/01 08:42:22;;;;;;;13.37;10.70;;;3.30;52.70;;;;;;5019863;28;20249;-89
2022/03/01 08:44:48;;;;;;;11.93;10.10;;;3.40;52.70;;;;;;5019453;28;20252;-89
2022/03/01 08:47:13;;;;;;;10.97;9.67;;;3.40;52.50;;;;;;5017099;28;20205;-89
2022/03/01 08:49:39;;;;;;;10.80;9.70;;;3.50;52.10;;;;;;5009853;28;20749;-89
2022/03/01 08:52:05;;;;;;;13.07;10.07;;;3.60;51.70;;;;;;4991081;28;20205;-88
2022/03/01 08:54:31;;;;;;;13.47;10.30;;;3.60;52.50;;;;;;5028145;28;20579;-89
2022/03/01 08:56:57;;;;;;;12.87;9.93;;;3.80;51.00;;;;;;5005256;28;20193;-88
2022/03/01 08:59:24;;;;;;;16.73;10.80;;;3.90;50.60;;;;;;5021883;28;20205;-88
2022/03/01 09:01:50;;;;;;;12.70;10.53;;;3.90;50.00;;;;;;5019915;28;20197;-89
2022/03/01 09:04:15;;;;;;;16.17;10.90;;;4.00;50.00;;;;;;5029212;28;20618;-89
2022/03/01 09:06:41;;;;;;;13.97;9.57;;;4.00;50.00;;;;;;5028098;28;20201;-88
2022/03/01 09:09:07;;;;;;;13.77;9.93;;;4.10;50.80;;;;;;5032478;28;20232;-89
2022/03/01 09:11:32;;;;;;;14.40;9.70;;;4.10;50.40;;;;;;5025988;28;20244;-89
2022/03/01 09:13:58;;;;;;;11.03;9.60;;;4.40;49.50;;;;;;5029253;28;20190;-88
2022/03/01 09:16:24;;;;;;;13.17;10.33;;;4.50;48.60;;;;;;4998911;28;20229;-88
2022/03/01 09:18:50;;;;;;;11.40;9.47;;;4.60;48.10;;;;;;5022623;28;20255;-88
2022/03/01 09:21:16;;;;;;;12.57;10.00;;;4.70;47.50;;;;;;5027525;28;20198;-88
2022/03/01 09:23:42;;;;;;;11.77;9.70;;;4.80;46.50;;;;;;5024943;28;20295;-88
2022/03/01 09:26:09;;;;;;;11.77;9.63;;;4.90;47.10;;;;;;5038223;28;20204;-88
2022/03/01 09:28:35;;;;;;;12.93;10.00;;;4.90;47.20;;;;;;5023402;28;20229;-87
2022/03/01 09:31:01;;;;;;;14.90;10.67;;;5.10;46.60;;;;;;5015627;28;20255;-89
2022/03/01 09:33:27;;;;;;;12.37;9.60;;;5.20;45.90;;;;;;5028954;28;20270;-89
2022/03/01 09:35:53;;;;;;;13.27;9.97;;;5.20;46.50;;;;;;5022626;28;20208;-89
2022/03/01 09:38:18;;;;;;;11.83;9.43;;;5.30;45.30;;;;;;5007653;28;20200;-88
2022/03/01 09:40:48;;;;;;;13.13;10.73;;;5.30;45.70;;;;;;5024738;28;20185;-88
2022/03/01 09:43:14;;;;;;;13.20;9.83;;;5.60;45.50;;;;;;5017128;28;20619;-89
2022/03/01 09:45:40;;;;;;;13.63;10.57;;;5.70;44.60;;;;;;5008271;28;20252;-88
2022/03/01 09:48:05;;;;;;;11.13;9.57;;;5.80;44.00;;;;;;5031402;28;20236;-88
2022/03/01 09:50:31;;;;;;;13.10;10.00;;;5.90;43.40;;;;;;5024953;28;20185;-88
2022/03/01 09:53:00;;;;;;;14.07;10.30;;;6.00;43.10;;;;;;5000298;28;20255;-88
2022/03/01 09:55:26;;;;;;;11.40;9.30;;;6.10;42.20;;;;;;5010592;28;20233;-89
2022/03/01 09:57:52;;;;;;;13.57;9.93;;;6.20;42.70;;;;;;5024283;28;20186;-88
2022/03/01 10:00:18;;;;;;;14.03;10.37;;;6.40;42.10;;;;;;5009769;28;20193;-88
2022/03/01 10:02:44;;;;;;;11.80;9.47;;;6.40;41.80;;;;;;5006312;28;20249;-89
2022/03/01 10:05:12;;;;;;;13.77;9.50;;;6.50;41.40;;;;;;5028080;28;20214;-87
2022/03/01 10:07:45;;;;;;;12.27;9.63;;;6.60;41.80;;;;;;5010127;28;20186;-87
2022/03/01 10:10:16;;;;;;;11.60;9.13;;;6.80;40.40;;;;;;5028610;28;20201;-87
2022/03/01 10:12:52;;;;;;;11.93;9.20;;;7.10;40.30;;;;;;5004873;28;20194;-87
2022/03/01 10:15:18;;;;;;;11.53;9.60;;;7.30;39.30;;;;;;5025603;28;20232;-87
2022/03/01 10:17:46;;;;;;;11.97;9.73;;;7.40;39.00;;;;;;5024026;28;20193;-88
2022/03/01 10:20:21;;;;;;;12.37;10.63;;;7.60;38.80;;;;;;5021730;28;20202;-86
2022/03/01 10:22:54;;;;;;;12.67;9.60;;;7.70;38.40;;;;;;5029907;28;20227;-87
2022/03/01 10:25:22;;;;;;;12.17;9.33;;;7.70;37.80;;;;;;5011747;28;20214;-87
2022/03/01 10:27:52;;;;;;;12.90;10.10;;;7.70;38.00;;;;;;5006814;28;20629;-87
2022/03/01 10:30:33;;;;;;;13.67;10.43;;;7.80;38.20;;;;;;5004300;28;20216;-87
2022/03/01 10:33:16;;;;;;;12.87;9.73;;;8.10;37.80;;;;;;5009990;28;20280;-86
2022/03/01 10:35:43;;;;;;;12.33;9.80;;;8.20;37.10;;;;;;5031739;28;20569;-87
2022/03/01 10:38:11;;;;;;;13.47;10.17;;;8.00;36.90;;;;;;5007582;28;20197;-89
2022/03/01 10:40:38;;;;;;;13.93;10.27;;;7.80;37.30;;;;;;5010446;28;20541;-89
2022/03/01 10:43:10;;;;;;;12.00;9.33;;;7.80;37.40;;;;;;5010602;28;20187;-89
2022/03/01 10:45:46;;;;;;;11.37;9.13;;;8.10;37.10;;;;;;5026506;28;20301;-89
2022/03/01 10:48:40;;;;;;;11.63;9.17;;;8.10;36.80;;;;;;5007566;28;20224;-89
2022/03/01 10:51:08;;;;;;;10.40;9.30;;;8.30;37.50;;;;;;5013646;28;20194;-89
2022/03/01 10:53:47;;;;;;;11.37;9.57;;;8.50;36.10;;;;;;5014027;28;20192;-88
2022/03/01 10:56:14;;;;;;;11.83;10.03;;;8.30;36.20;;;;;;5025551;28;20652;-89
2022/03/01 10:58:42;;;;;;;11.00;9.20;;;8.50;37.00;;;;;;5028400;28;20204;-88
2022/03/01 11:01:13;;;;;;;10.90;9.43;;;8.60;36.40;;;;;;5028383;28;20737;-89
2022/03/01 11:03:39;;;;;;;10.97;9.63;;;8.60;36.10;;;;;;5010807;28;20197;-89
2022/03/01 11:06:05;;;;;;;12.17;9.33;;;8.40;35.20;;;;;;5022790;28;20228;-88
2022/03/01 11:08:37;;;;;;;12.90;9.60;;;8.60;34.80;;;;;;5029675;28;20233;-88
2022/03/01 11:11:09;;;;;;;10.60;9.50;;;8.80;35.20;;;;;;5031083;28;20181;-89
2022/03/01 11:13:39;;;;;;;11.00;9.80;;;9.20;35.20;;;;;;5024849;28;20192;-88
2022/03/01 11:16:31;;;;;;;11.17;9.33;;;9.70;33.30;;;;;;5030259;28;20236;-86
2022/03/01 11:19:28;;;;;;;12.80;9.63;;;10.00;32.90;;;;;;5031240;28;20259;-87
2022/03/01 11:21:54;;;;;;;11.27;9.60;;;10.10;33.10;;;;;;5024298;28;20182;-87
2022/03/01 11:24:22;;;;;;;14.27;10.27;;;10.30;32.90;;;;;;5018037;28;20281;-86
2022/03/01 11:26:48;;;;;;;10.80;9.13;;;10.40;32.20;;;;;;5029286;28;20208;-87
2022/03/01 11:29:16;;;;;;;11.30;9.90;;;10.40;31.60;;;;;;5009587;28;20213;-86
2022/03/01 11:31:54;;;;;;;12.30;9.90;;;10.40;30.90;;;;;;5006157;28;20185;-86
2022/03/01 11:34:22;;;;;;;11.03;9.17;;;10.40;31.50;;;;;;5020912;28;20204;-86
2022/03/01 11:36:55;;;;;;;10.90;9.83;;;10.60;31.60;;;;;;5027088;28;20182;-86
2022/03/01 11:39:31;;;;;;;13.30;10.07;;;10.70;31.40;;;;;;5025437;28;20187;-86
2022/03/01 11:42:21;;;;;;;12.03;9.23;;;10.70;30.20;;;;;;5042350;28;20172;-86
2022/03/01 11:44:52;;;;;;;10.80;9.70;;;10.70;30.70;;;;;;5024811;28;20285;-87
2022/03/01 11:47:32;;;;;;;14.73;9.50;;;10.90;30.80;;;;;;5017206;28;20196;-86
2022/03/01 11:50:08;;;;;;;12.00;10.43;;;11.20;30.40;;;;;;5026530;28;20196;-87
2022/03/01 11:52:34;;;;;;;10.77;9.57;;;11.20;29.60;;;;;;5028778;28;20197;-86
2022/03/01 11:55:01;;;;;;;11.20;9.53;;;10.80;29.50;;;;;;5029562;28;20222;-87
2022/03/01 11:57:29;;;;;;;10.00;9.00;;;10.90;29.60;;;;;;5030865;28;20308;-87
2022/03/01 11:59:57;;;;;;;10.90;9.77;;;10.80;29.30;;;;;;5007879;28;20201;-86
2022/03/01 12:02:26;;;;;;;10.47;9.37;;;11.30;29.70;;;;;;5006773;28;20213;-87
2022/03/01 12:04:55;;;;;;;12.60;9.43;;;11.80;28.40;;;;;;5025842;28;20217;-87
2022/03/01 12:07:23;;;;;;;11.47;10.23;;;11.80;27.90;;;;;;5024593;28;20268;-86
2022/03/01 12:10:05;;;;;;;10.97;8.83;;;12.10;28.00;;;;;;5034125;28;20245;-87
2022/03/01 12:12:45;;;;;;;10.73;9.43;;;11.70;27.70;;;;;;5024094;28;20181;-86
2022/03/01 12:15:12;;;;;;;10.37;9.27;;;12.10;27.40;;;;;;5030449;28;20232;-87
2022/03/01 12:17:49;;;;;;;10.30;9.27;;;12.20;27.20;;;;;;5022090;28;20191;-87
2022/03/01 12:20:19;;;;;;;11.73;9.50;;;12.00;26.60;;;;;;5024314;28;20288;-87
2022/03/01 12:22:51;;;;;;;9.23;8.30;;;11.90;27.00;;;;;;5018254;28;20229;-87
2022/03/01 12:25:16;;;;;;;11.97;10.77;;;12.00;26.50;;;;;;5006498;28;20237;-87
2022/03/01 12:27:43;;;;;;;10.03;9.03;;;11.50;26.00;;;;;;5016781;28;20189;-87
2022/03/01 12:30:10;;;;;;;9.67;7.67;;;11.00;26.40;;;;;;5003725;28;20255;-87
2022/03/01 12:32:36;;;;;;;8.83;7.87;;;10.90;26.10;;;;;;5012819;28;20189;-87
2022/03/01 12:35:03;;;;;;;9.13;7.77;;;10.70;26.80;;;;;;5002768;28;20291;-87
2022/03/01 12:37:29;;;;;;;10.40;8.70;;;10.70;26.60;;;;;;5022258;28;20193;-86
2022/03/01 12:39:56;;;;;;;7.93;7.20;;;11.10;26.20;;;;;;5025386;28;20621;-87
2022/03/01 12:42:27;;;;;;;10.33;8.87;;;11.40;26.30;;;;;;5020252;28;20186;-87
2022/03/01 12:44:54;;;;;;;12.50;9.17;;;11.70;25.50;;;;;;5022581;28;20687;-87
2022/03/01 12:47:20;;;;;;;11.77;10.20;;;12.00;26.00;;;;;;5024280;28;20197;-87
2022/03/01 12:49:46;;;;;;;13.33;11.93;;;12.10;25.80;;;;;;5032153;28;20700;-87
2022/03/01 12:52:19;;;;;;;9.23;7.93;;;12.20;26.10;;;;;;5029353;28;20185;-87
2022/03/01 12:54:50;;;;;;;13.10;9.00;;;11.90;25.10;;;;;;5022252;28;20197;-87
2022/03/01 12:57:17;;;;;;;9.10;8.20;;;12.00;25.40;;;;;;5028154;28;20185;-87
2022/03/01 12:59:44;;;;;;;9.13;7.93;;;12.40;25.10;;;;;;5034105;28;20182;-88
2022/03/01 13:02:13;;;;;;;9.57;8.67;;;12.40;24.90;;;;;;5023822;28;20201;-87